NZAA

Auckland International Airport

Auckland, New Zealand
METAR NZAA 201930Z AUTO 18002KT 9999 BKN047/// 16/14 Q1027 NOSIG
Observed Flight Rules
Oct-20 @ 19:30 UTC (23 minutes ago) Visual Flight Rules
Wind Visibility Clouds
180° at 2 knots 10,000+ meters
  • Broken at 4,700' AGL
Temperatures Readings
Current 16°C / 61°F
Dewpoint 14°C / 57°F
Humidity 88%
Altimeter 30.32" Hg
Pressure 1027 hPa
Elevation 6
METAR NZAA 201930Z AUTO 18002KT 9999 BKN047/// 16/14 Q1027 NOSIG
Observed Flight Rules
Oct-20 @ 19:30 UTC
(23 minutes ago)
VFR
Wind Visibility
180° at 2 knots 10,000+ meters
Clouds
  • Broken at 4,700' AGL
Temperature Dewpoint
16°C / 61°F 14°C / 57°F
Humidity Altimeter Pressure
88% 30.32" Hg 1027 hPa